createdAt,value
2018-09-22T00:00:36.917Z,20.40
2018-09-22T00:03:05.680Z,20.30
2018-09-22T00:05:33.358Z,20.30
2018-09-22T00:08:02.115Z,20.30
2018-09-22T00:10:30.796Z,20.30
2018-09-22T00:13:00.074Z,20.30
2018-09-22T00:15:29.747Z,20.30
2018-09-22T00:17:59.606Z,20.30
2018-09-22T00:20:27.275Z,20.30
2018-09-22T00:22:54.983Z,20.30
2018-09-22T00:25:23.420Z,20.30
2018-09-22T00:27:52.588Z,20.30
2018-09-22T00:30:20.304Z,20.30
2018-09-22T00:32:48.893Z,20.20
2018-09-22T00:35:16.599Z,20.20
2018-09-22T00:37:44.260Z,20.20
2018-09-22T00:40:12.060Z,20.20
2018-09-22T00:42:40.755Z,20.20
2018-09-22T00:45:09.479Z,20.30
2018-09-22T00:47:38.252Z,20.20
2018-09-22T00:50:05.968Z,20.20
2018-09-22T00:52:34.638Z,20.20
2018-09-22T00:55:02.376Z,20.20
2018-09-22T00:57:31.075Z,20.20
2018-09-22T00:59:59.268Z,20.20
2018-09-22T01:02:28.866Z,20.20
2018-09-22T01:04:57.473Z,20.20
2018-09-22T01:07:25.636Z,20.20
2018-09-22T01:09:53.911Z,20.20
2018-09-22T01:12:23.486Z,20.20
2018-09-22T01:14:52.587Z,20.20
2018-09-22T01:17:20.316Z,20.20
2018-09-22T01:19:49.028Z,20.20
2018-09-22T01:22:17.795Z,20.20
2018-09-22T01:24:46.399Z,20.20
2018-09-22T01:27:14.069Z,20.20
2018-09-22T01:29:42.788Z,20.20
2018-09-22T01:32:10.464Z,20.20
2018-09-22T01:34:38.136Z,20.20
2018-09-22T01:37:05.852Z,20.20
2018-09-22T01:39:33.543Z,20.20
2018-09-22T01:42:01.669Z,20.20
2018-09-22T01:44:30.404Z,20.20
2018-09-22T01:46:59.841Z,20.20
2018-09-22T01:49:27.551Z,20.20
2018-09-22T01:51:55.227Z,20.20
2018-09-22T01:54:23.831Z,20.20
2018-09-22T01:56:52.560Z,20.20
2018-09-22T01:59:20.240Z,20.20
2018-09-22T02:01:47.913Z,20.20
2018-09-22T02:04:15.650Z,20.20
2018-09-22T02:06:43.328Z,20.20
2018-09-22T02:09:11.436Z,20.20
2018-09-22T02:11:39.104Z,20.20
2018-09-22T02:14:06.775Z,20.20
2018-09-22T02:16:34.439Z,20.10
2018-09-22T02:19:02.122Z,20.10
2018-09-22T02:21:30.404Z,20.10
2018-09-22T02:23:59.381Z,20.10
2018-09-22T02:26:27.124Z,20.10
2018-09-22T02:28:54.792Z,20.10
2018-09-22T02:31:24.527Z,20.10
2018-09-22T02:33:53.176Z,20.10
2018-09-22T02:36:20.844Z,20.10
2018-09-22T02:38:49.527Z,20.10
2018-09-22T02:41:17.200Z,20.10
2018-09-22T02:43:44.874Z,20.10
2018-09-22T02:46:12.555Z,20.10
2018-09-22T02:48:40.231Z,20.10
2018-09-22T02:51:07.904Z,20.10
2018-09-22T02:53:35.761Z,20.10
2018-09-22T02:56:04.047Z,20.10
2018-09-22T02:58:31.996Z,20.10
2018-09-22T03:01:00.540Z,20.10
2018-09-22T03:03:29.328Z,20.00
2018-09-22T03:05:57.937Z,20.00
2018-09-22T03:08:26.520Z,20.00
2018-09-22T03:10:54.201Z,20.00
2018-09-22T03:13:23.178Z,20.00
2018-09-22T03:15:50.940Z,20.00
2018-09-22T03:18:18.615Z,20.00
2018-09-22T03:20:46.279Z,20.00
2018-09-22T03:23:13.956Z,20.10
2018-09-22T03:25:42.646Z,20.00
2018-09-22T03:28:11.315Z,20.10
2018-09-22T03:30:38.995Z,20.00
2018-09-22T03:33:06.664Z,20.00
2018-09-22T03:35:34.357Z,20.00
2018-09-22T03:38:02.028Z,20.00
2018-09-22T03:40:30.572Z,20.00
2018-09-22T03:42:59.988Z,20.00
2018-09-22T03:45:29.545Z,20.00
2018-09-22T03:47:59.392Z,20.00
2018-09-22T03:50:29.051Z,20.00
2018-09-22T03:52:57.644Z,20.00
2018-09-22T03:55:26.313Z,20.00
2018-09-22T03:57:54.024Z,20.00
2018-09-22T04:00:22.638Z,20.00
2018-09-22T04:02:50.368Z,20.00
2018-09-22T04:05:18.044Z,20.00
2018-09-22T04:07:46.728Z,20.00
2018-09-22T04:10:15.408Z,20.00
2018-09-22T04:12:43.068Z,20.00
2018-09-22T04:15:10.728Z,20.00
2018-09-22T04:17:39.405Z,20.00
2018-09-22T04:20:08.088Z,20.00
2018-09-22T04:22:36.664Z,20.00
2018-09-22T04:25:04.409Z,20.00
2018-09-22T04:27:33.146Z,20.00
2018-09-22T04:30:01.055Z,20.00
2018-09-22T04:32:30.376Z,20.00
2018-09-22T04:34:59.887Z,20.00
2018-09-22T04:37:27.549Z,20.00
2018-09-22T04:39:56.115Z,20.00
2018-09-22T04:42:23.800Z,20.00
2018-09-22T04:44:51.474Z,20.00
2018-09-22T04:47:20.023Z,20.00
2018-09-22T04:49:48.779Z,20.00
2018-09-22T04:52:17.464Z,20.00
2018-09-22T04:54:45.212Z,20.00
2018-09-22T04:57:12.911Z,20.00
2018-09-22T04:59:41.457Z,20.00
2018-09-22T05:02:09.365Z,20.00
2018-09-22T05:04:37.174Z,20.00
2018-09-22T05:07:04.846Z,19.90
2018-09-22T05:09:33.511Z,19.90
2018-09-22T05:12:02.215Z,19.90
2018-09-22T05:14:31.943Z,19.90
2018-09-22T05:17:00.787Z,19.90
2018-09-22T05:19:29.751Z,19.90
2018-09-22T05:21:59.871Z,19.90
2018-09-22T05:24:29.651Z,19.90
2018-09-22T05:26:58.359Z,19.90
2018-09-22T05:29:26.035Z,19.90
2018-09-22T05:31:53.717Z,19.90
2018-09-22T05:34:22.755Z,20.00
2018-09-22T05:36:50.428Z,19.90
2018-09-22T05:39:19.407Z,19.90
2018-09-22T05:41:47.154Z,19.90
2018-09-22T05:44:14.885Z,19.90
2018-09-22T05:46:42.557Z,20.00
2018-09-22T05:49:11.084Z,19.90
2018-09-22T05:51:39.679Z,20.00
2018-09-22T05:54:07.362Z,20.00
2018-09-22T05:56:35.044Z,20.00
2018-09-22T05:59:03.738Z,19.90
2018-09-22T06:01:31.419Z,19.90
2018-09-22T06:04:00.301Z,19.90
2018-09-22T06:06:27.788Z,19.90
2018-09-22T06:08:55.455Z,19.90
2018-09-22T06:11:24.144Z,20.00
2018-09-22T06:13:53.672Z,19.90
2018-09-22T06:16:21.925Z,19.90
2018-09-22T06:18:49.820Z,20.00
2018-09-22T06:21:17.500Z,20.00
2018-09-22T06:23:46.180Z,20.00
2018-09-22T06:26:14.604Z,20.00
2018-09-22T06:28:42.331Z,19.90
2018-09-22T06:31:10.020Z,19.90
2018-09-22T06:33:37.728Z,20.00
2018-09-22T06:36:06.599Z,19.90
2018-09-22T06:38:35.196Z,19.90
2018-09-22T06:41:03.903Z,20.00
2018-09-22T06:43:31.619Z,19.90
2018-09-22T06:46:00.259Z,20.00
2018-09-22T06:48:27.972Z,20.00
2018-09-22T06:50:55.741Z,19.70
2018-09-22T06:53:25.316Z,19.70
2018-09-22T06:55:54.543Z,19.70
2018-09-22T06:58:23.036Z,19.80
2018-09-22T07:00:50.873Z,19.80
2018-09-22T07:03:18.765Z,19.80
2018-09-22T07:05:47.388Z,19.80
2018-09-22T07:08:15.072Z,19.80
2018-09-22T07:10:43.796Z,19.90
2018-09-22T07:13:11.496Z,19.90
2018-09-22T07:15:39.180Z,19.80
2018-09-22T07:18:07.853Z,19.80
2018-09-22T07:20:36.550Z,19.90
2018-09-22T07:23:09.806Z,19.80
2018-09-22T07:25:37.556Z,19.80
2018-09-22T07:28:07.141Z,19.80
2018-09-22T07:30:34.815Z,19.80
2018-09-22T07:33:03.527Z,19.80
2018-09-22T07:35:31.220Z,19.80
2018-09-22T07:38:00.436Z,19.80
2018-09-22T07:40:28.496Z,19.80
2018-09-22T07:42:57.147Z,19.80
2018-09-22T07:45:26.001Z,19.80
2018-09-22T07:47:54.383Z,19.80
2018-09-22T07:50:22.935Z,19.80
2018-09-22T07:52:52.402Z,19.80
2018-09-22T07:55:20.078Z,19.80
2018-09-22T07:57:48.829Z,19.80
2018-09-22T08:00:16.528Z,19.80
2018-09-22T08:02:44.267Z,19.80
2018-09-22T08:05:12.829Z,19.90
2018-09-22T08:07:40.527Z,19.90
2018-09-22T08:10:08.197Z,19.90
2018-09-22T08:12:35.952Z,19.90
2018-09-22T08:15:04.836Z,19.90
2018-09-22T08:17:32.517Z,19.90
2018-09-22T08:20:01.872Z,19.90
2018-09-22T08:22:30.424Z,19.80
2018-09-22T08:24:58.942Z,19.80
2018-09-22T08:27:27.756Z,19.80
2018-09-22T08:29:55.456Z,19.80
2018-09-22T08:32:24.145Z,19.80
2018-09-22T08:34:53.000Z,19.90
2018-09-22T08:37:20.843Z,19.90
2018-09-22T08:39:48.553Z,19.90
2018-09-22T08:42:16.376Z,19.90
2018-09-22T08:44:44.101Z,19.90
2018-09-22T08:47:11.760Z,19.90
2018-09-22T08:49:40.429Z,19.90
2018-09-22T08:52:09.081Z,19.90
2018-09-22T08:54:37.772Z,19.90
2018-09-22T08:57:05.493Z,19.90
2018-09-22T08:59:33.168Z,19.90
2018-09-22T09:02:01.763Z,19.90
2018-09-22T09:04:30.417Z,19.90
2018-09-22T09:06:59.109Z,19.90
2018-09-22T09:09:26.779Z,20.00
2018-09-22T09:11:55.156Z,20.10
2018-09-22T09:14:22.841Z,20.20
2018-09-22T09:16:50.520Z,20.30
2018-09-22T09:19:18.192Z,20.50
2018-09-22T09:21:45.848Z,20.50
2018-09-22T09:24:13.512Z,20.50
2018-09-22T09:26:41.259Z,20.60
2018-09-22T09:29:08.978Z,20.60
2018-09-22T09:31:36.747Z,20.60
2018-09-22T09:34:10.963Z,20.60
2018-09-22T09:36:38.736Z,20.60
2018-09-22T09:39:06.416Z,20.60
2018-09-22T09:41:34.121Z,20.50
2018-09-22T09:44:01.799Z,20.50
2018-09-22T09:46:30.224Z,20.60
2018-09-22T09:49:00.283Z,20.60
2018-09-22T09:51:30.015Z,20.60
2018-09-22T09:53:59.772Z,20.60
2018-09-22T09:56:27.439Z,20.60
2018-09-22T09:58:55.156Z,20.60
2018-09-22T10:01:22.843Z,20.60
2018-09-22T10:03:52.074Z,20.60
2018-09-22T10:06:19.764Z,20.60
2018-09-22T10:08:48.288Z,20.60
2018-09-22T10:11:16.049Z,20.70
2018-09-22T10:13:43.826Z,20.60
2018-09-22T10:16:11.513Z,20.60
2018-09-22T10:18:39.236Z,20.60
2018-09-22T10:21:06.912Z,20.60
2018-09-22T10:23:35.466Z,20.60
2018-09-22T10:26:04.555Z,20.60
2018-09-22T10:28:32.242Z,20.50
2018-09-22T10:31:01.945Z,20.50
2018-09-22T10:33:31.056Z,20.50
2018-09-22T10:36:00.256Z,20.50
2018-09-22T10:38:27.935Z,20.50
2018-09-22T10:40:56.323Z,20.50
2018-09-22T10:43:23.998Z,20.50
2018-09-22T10:45:51.715Z,20.50
2018-09-22T10:48:23.911Z,20.50
2018-09-22T10:50:52.361Z,20.50
2018-09-22T10:53:20.140Z,20.50
2018-09-22T10:55:47.808Z,20.50
2018-09-22T10:58:16.400Z,20.50
2018-09-22T11:00:45.084Z,20.50
2018-09-22T11:03:13.893Z,20.50
2018-09-22T11:05:42.794Z,20.50
2018-09-22T11:08:10.479Z,20.50
2018-09-22T11:10:39.093Z,20.50
2018-09-22T11:13:07.815Z,20.50
2018-09-22T11:15:35.479Z,20.50
2018-09-22T11:18:03.394Z,20.50
2018-09-22T11:20:32.118Z,20.50
2018-09-22T11:23:00.855Z,20.40
2018-09-22T11:25:29.946Z,20.40
2018-09-22T11:27:59.799Z,20.40
2018-09-22T11:30:27.996Z,20.40
2018-09-22T11:32:55.680Z,20.40
2018-09-22T11:35:24.413Z,20.40
2018-09-22T11:37:52.097Z,20.40
2018-09-22T11:40:19.785Z,20.40
2018-09-22T11:42:47.472Z,20.40
2018-09-22T11:45:16.250Z,20.40
2018-09-22T11:47:44.853Z,20.40
2018-09-22T11:50:12.549Z,20.30
2018-09-22T11:52:41.413Z,20.40
2018-09-22T11:55:10.098Z,20.40
2018-09-22T11:57:38.821Z,20.40
2018-09-22T12:00:07.564Z,20.40
2018-09-22T12:02:35.272Z,20.40
2018-09-22T12:05:03.861Z,20.40
2018-09-22T12:07:31.791Z,20.40
2018-09-22T12:10:00.403Z,20.40
2018-09-22T12:12:29.599Z,20.40
2018-09-22T12:14:58.312Z,20.40
2018-09-22T12:17:26.982Z,20.40
2018-09-22T12:19:54.660Z,20.40
2018-09-22T12:22:24.261Z,20.40
2018-09-22T12:24:53.662Z,20.40
2018-09-22T12:27:23.228Z,20.40
2018-09-22T12:29:50.905Z,20.40
2018-09-22T12:32:19.512Z,20.40
2018-09-22T12:34:50.437Z,20.40
2018-09-22T12:37:19.137Z,20.30
2018-09-22T12:39:47.829Z,20.20
2018-09-22T12:42:15.513Z,20.20
2018-09-22T12:44:43.203Z,20.20
2018-09-22T12:47:11.221Z,20.20
2018-09-22T12:49:39.105Z,20.20
2018-09-22T12:52:06.785Z,20.20
2018-09-22T12:54:34.465Z,20.20
2018-09-22T12:57:02.175Z,20.30
2018-09-22T12:59:31.241Z,20.20
2018-09-22T13:02:00.420Z,20.20
2018-09-22T13:04:29.784Z,20.20
2018-09-22T13:06:57.472Z,20.20
2018-09-22T13:09:49.308Z,20.10
2018-09-22T13:12:43.061Z,20.20
2018-09-22T13:15:10.997Z,20.20
2018-09-22T13:17:38.724Z,20.20
2018-09-22T13:20:06.425Z,20.20
2018-09-22T13:22:34.198Z,20.20
2018-09-22T13:25:02.334Z,20.20
2018-09-22T13:27:31.746Z,20.30
2018-09-22T13:30:01.010Z,20.20
2018-09-22T13:32:30.020Z,20.20
2018-09-22T13:34:57.707Z,20.20
2018-09-22T13:37:25.642Z,20.20
2018-09-22T13:39:54.173Z,20.20
2018-09-22T13:42:23.024Z,20.20
2018-09-22T13:44:50.708Z,20.20
2018-09-22T13:47:18.405Z,20.20
2018-09-22T13:49:46.072Z,20.20
2018-09-22T13:52:13.763Z,20.20
2018-09-22T13:54:41.473Z,20.20
2018-09-22T13:57:09.161Z,20.20
2018-09-22T13:59:36.951Z,20.20
2018-09-22T14:02:04.639Z,20.20
2018-09-22T14:04:32.334Z,20.20
2018-09-22T14:07:00.926Z,20.20
2018-09-22T14:09:29.359Z,20.20
2018-09-22T14:11:57.020Z,20.20
2018-09-22T14:14:29.728Z,20.20
2018-09-22T14:16:59.391Z,20.20
2018-09-22T14:19:29.173Z,20.20
2018-09-22T14:21:57.959Z,20.20
2018-09-22T14:24:26.731Z,20.10
2018-09-22T14:26:55.430Z,20.10
2018-09-22T14:29:24.140Z,20.10
2018-09-22T14:31:53.150Z,20.10
2018-09-22T14:34:22.194Z,20.10
2018-09-22T14:36:50.792Z,20.10
2018-09-22T14:39:19.512Z,20.10
2018-09-22T14:41:48.328Z,20.00
2018-09-22T14:44:16.874Z,20.00
2018-09-22T14:46:44.596Z,20.00
2018-09-22T14:49:13.183Z,20.00
2018-09-22T14:51:40.859Z,20.00
2018-09-22T14:54:08.527Z,20.00
2018-09-22T14:56:37.310Z,20.00
2018-09-22T14:59:06.249Z,20.00
2018-09-22T15:01:34.963Z,19.90
2018-09-22T15:04:03.524Z,20.00
2018-09-22T15:06:32.076Z,19.90
2018-09-22T15:09:01.318Z,20.00
2018-09-22T15:11:31.000Z,20.00
2018-09-22T15:14:00.364Z,20.00
2018-09-22T15:16:30.392Z,20.00
2018-09-22T15:18:59.393Z,19.90
2018-09-22T15:21:28.954Z,20.00
2018-09-22T15:23:57.589Z,19.90
2018-09-22T15:26:25.264Z,19.90
2018-09-22T15:29:00.947Z,19.90
2018-09-22T15:31:30.317Z,20.00
2018-09-22T15:33:59.942Z,20.00
2018-09-22T15:36:29.483Z,20.00
2018-09-22T15:38:58.927Z,20.00
2018-09-22T15:41:26.774Z,20.10
2018-09-22T15:43:55.376Z,20.10
2018-09-22T15:46:23.072Z,20.00
2018-09-22T15:48:52.474Z,20.00
2018-09-22T15:51:21.071Z,20.00
2018-09-22T15:53:48.743Z,19.90
2018-09-22T15:56:16.474Z,19.90
2018-09-22T15:58:44.160Z,19.90
2018-09-22T16:01:13.272Z,19.90
2018-09-22T16:03:40.949Z,19.90
2018-09-22T16:06:10.116Z,19.90
2018-09-22T16:08:37.849Z,19.80
2018-09-22T16:11:05.781Z,19.80
2018-09-22T16:13:33.529Z,19.80
2018-09-22T16:16:03.400Z,19.80
2018-09-22T16:18:31.124Z,19.80
2018-09-22T16:21:00.792Z,19.80
2018-09-22T16:23:29.536Z,19.80
2018-09-22T16:25:57.600Z,19.80
2018-09-22T16:28:25.713Z,19.70
2018-09-22T16:30:54.349Z,19.70
2018-09-22T16:33:24.363Z,19.70
2018-09-22T16:35:53.955Z,19.70
2018-09-22T16:38:23.924Z,19.70
2018-09-22T16:40:53.185Z,19.80
2018-09-22T16:43:20.916Z,19.80
2018-09-22T16:45:49.616Z,19.90
2018-09-22T16:48:18.389Z,19.90
2018-09-22T16:50:47.053Z,19.90
2018-09-22T16:53:14.756Z,19.90
2018-09-22T16:55:43.330Z,19.90
2018-09-22T16:58:12.070Z,20.00
2018-09-22T17:00:45.217Z,20.00
2018-09-22T17:03:13.274Z,20.00
2018-09-22T17:05:41.032Z,19.90
2018-09-22T17:08:09.657Z,19.90
2018-09-22T17:10:37.355Z,20.00
2018-09-22T17:13:05.420Z,20.00
2018-09-22T17:15:34.046Z,20.00
2018-09-22T17:18:02.820Z,20.00
2018-09-22T17:20:31.504Z,20.00
2018-09-22T17:23:00.996Z,20.00
2018-09-22T17:25:30.757Z,20.00
2018-09-22T17:27:59.972Z,20.00
2018-09-22T17:30:27.747Z,20.00
2018-09-22T17:32:55.517Z,20.00
2018-09-22T17:35:23.892Z,20.00
2018-09-22T17:37:52.430Z,20.00
2018-09-22T17:40:20.095Z,20.00
2018-09-22T17:42:47.772Z,20.00
2018-09-22T17:45:15.456Z,20.00
2018-09-22T17:47:43.146Z,20.00
2018-09-22T17:50:10.827Z,20.00
2018-09-22T17:52:38.493Z,20.00
2018-09-22T17:55:06.169Z,20.00
2018-09-22T17:57:33.835Z,20.00
2018-09-22T18:00:01.546Z,20.00
2018-09-22T18:02:30.406Z,20.00
2018-09-22T18:04:58.433Z,20.00
2018-09-22T18:07:26.991Z,19.90
2018-09-22T18:09:54.706Z,19.90
2018-09-22T18:12:22.379Z,20.00
2018-09-22T18:14:50.067Z,20.00
2018-09-22T18:17:17.749Z,20.00
2018-09-22T18:19:46.330Z,20.00
2018-09-22T18:22:13.998Z,20.00
2018-09-22T18:24:41.658Z,20.00
2018-09-22T18:27:09.360Z,20.00
2018-09-22T18:29:37.025Z,20.00
2018-09-22T18:32:04.816Z,20.00
2018-09-22T18:34:33.601Z,20.10
2018-09-22T18:37:01.283Z,20.20
2018-09-22T18:39:31.061Z,20.30
2018-09-22T18:41:59.341Z,20.40
2018-09-22T18:44:27.197Z,20.50
2018-09-22T18:46:54.915Z,20.50
2018-09-22T18:49:23.336Z,20.50
2018-09-22T18:51:52.655Z,20.50
2018-09-22T18:54:20.382Z,20.60
2018-09-22T18:56:48.052Z,20.70
2018-09-22T18:59:16.721Z,20.70
2018-09-22T19:01:45.272Z,20.70
2018-09-22T19:04:12.943Z,20.70
2018-09-22T19:06:40.949Z,20.70
2018-09-22T19:09:09.243Z,20.70
2018-09-22T19:11:36.929Z,20.70
2018-09-22T19:14:11.489Z,20.60
2018-09-22T19:16:44.789Z,20.60
2018-09-22T19:19:18.366Z,20.60
2018-09-22T19:21:51.419Z,20.60
2018-09-22T19:24:24.576Z,20.60
2018-09-22T19:26:54.683Z,20.60
2018-09-22T19:29:31.359Z,20.60
2018-09-22T19:32:13.705Z,20.60
2018-09-22T19:34:52.053Z,20.50
2018-09-22T19:37:27.224Z,20.50
2018-09-22T19:40:02.109Z,20.50
2018-09-22T19:42:40.428Z,20.50
2018-09-22T19:45:17.678Z,20.50
2018-09-22T19:47:48.696Z,20.50
2018-09-22T19:50:23.777Z,20.50
2018-09-22T19:52:53.633Z,20.50
2018-09-22T19:55:23.312Z,20.50
2018-09-22T19:57:52.500Z,20.50
2018-09-22T20:00:20.185Z,20.50
2018-09-22T20:02:48.899Z,20.50
2018-09-22T20:05:17.648Z,20.50
2018-09-22T20:07:46.337Z,20.50
2018-09-22T20:10:14.074Z,20.50
2018-09-22T20:12:41.748Z,20.50
2018-09-22T20:15:09.559Z,20.50
2018-09-22T20:17:37.246Z,20.50
2018-09-22T20:20:05.595Z,20.40
2018-09-22T20:22:33.308Z,20.40
2018-09-22T20:25:01.018Z,20.40
2018-09-22T20:27:30.173Z,20.40
2018-09-22T20:29:57.882Z,20.40
2018-09-22T20:32:25.671Z,20.40
2018-09-22T20:34:54.150Z,20.40
2018-09-22T20:37:22.483Z,20.40
2018-09-22T20:39:50.184Z,20.40
2018-09-22T20:42:17.993Z,20.40
2018-09-22T20:44:45.664Z,20.40
2018-09-22T20:47:13.407Z,20.40
2018-09-22T20:49:41.087Z,20.40
2018-09-22T20:52:09.975Z,20.40
2018-09-22T20:54:37.681Z,20.40
2018-09-22T20:57:05.425Z,20.40
2018-09-22T20:59:33.108Z,20.40
2018-09-22T21:02:00.804Z,20.40
2018-09-22T21:04:29.555Z,20.30
2018-09-22T21:06:59.023Z,20.30
2018-09-22T21:09:26.806Z,20.30
2018-09-22T21:11:55.538Z,20.30
2018-09-22T21:14:24.386Z,20.30
2018-09-22T21:16:53.741Z,20.30
2018-09-22T21:19:21.412Z,20.30
2018-09-22T21:21:50.125Z,20.30
2018-09-22T21:24:17.853Z,20.30
2018-09-22T21:26:46.520Z,20.30
2018-09-22T21:29:14.228Z,20.30
2018-09-22T21:31:43.081Z,20.30
2018-09-22T21:34:10.760Z,20.30
2018-09-22T21:36:38.493Z,20.30
2018-09-22T21:39:07.550Z,20.30
2018-09-22T21:41:35.244Z,20.30
2018-09-22T21:44:03.016Z,20.30
2018-09-22T21:46:31.127Z,20.30
2018-09-22T21:49:00.259Z,20.30
2018-09-22T21:51:27.936Z,20.30
2018-09-22T21:53:56.616Z,20.30
2018-09-22T21:56:24.284Z,20.30
2018-09-22T21:58:52.533Z,20.30
2018-09-22T22:01:25.689Z,20.30
2018-09-22T22:03:54.736Z,20.30
2018-09-22T22:06:23.429Z,20.10
2018-09-22T22:08:51.177Z,20.00
2018-09-22T22:11:18.845Z,19.90
2018-09-22T22:13:46.528Z,20.00
2018-09-22T22:16:14.198Z,20.10
2018-09-22T22:18:41.887Z,20.10
2018-09-22T22:21:09.588Z,20.20
2018-09-22T22:23:37.263Z,20.20
2018-09-22T22:26:05.487Z,20.20
2018-09-22T22:28:33.180Z,20.30
2018-09-22T22:31:00.866Z,20.20
2018-09-22T22:33:30.036Z,20.20
2018-09-22T22:35:57.714Z,20.20
2018-09-22T22:38:25.394Z,20.20
2018-09-22T22:40:54.070Z,20.20
2018-09-22T22:43:21.765Z,20.20
2018-09-22T22:45:50.844Z,20.20
2018-09-22T22:48:18.513Z,20.20
2018-09-22T22:50:46.199Z,20.20
2018-09-22T22:53:13.880Z,20.20
2018-09-22T22:55:41.560Z,20.20
2018-09-22T22:58:09.296Z,20.20
2018-09-22T23:00:37.091Z,20.20
2018-09-22T23:03:04.849Z,20.20
2018-09-22T23:05:32.583Z,20.20
2018-09-22T23:08:02.123Z,20.20
2018-09-22T23:10:30.684Z,20.20
2018-09-22T23:12:58.389Z,20.20
2018-09-22T23:15:27.068Z,20.20
2018-09-22T23:17:55.640Z,20.20
2018-09-22T23:20:24.604Z,20.20
2018-09-22T23:22:54.175Z,20.20
2018-09-22T23:25:22.573Z,20.10
2018-09-22T23:27:51.292Z,20.10
2018-09-22T23:30:19.001Z,20.10
2018-09-22T23:32:47.620Z,20.10
2018-09-22T23:35:16.196Z,20.10
2018-09-22T23:37:44.900Z,20.20
2018-09-22T23:40:13.514Z,20.10
2018-09-22T23:42:42.236Z,20.10
2018-09-22T23:45:09.916Z,20.10
2018-09-22T23:47:38.600Z,20.10
2018-09-22T23:50:06.301Z,20.10
2018-09-22T23:52:34.859Z,20.10
2018-09-22T23:55:02.636Z,20.10
2018-09-22T23:57:31.144Z,20.10
